ADDS METAR Data INFO
IDs: Format: Raw Decoded Include TAF

Data at: 0629 UTC 15 Dec 2017

KJFK 150551Z 31009KT 10SM BKN250 M06/M14 A3011 RMK AO2 SLP196 T10561144 11028 21056 51005
KJFK 150451Z 32011KT 10SM BKN250 M05/M15 A3011 RMK AO2 SLP195 T10501150 400001050
KJFK 150351Z 32011KT 10SM BKN230 M04/M14 A3010 RMK AO2 SLP194 T10441144
KJFK 150251Z 32010KT 10SM BKN230 M04/M14 A3010 RMK AO2 SLP191 T10441139 51025
KJFK 150151Z 32013KT 10SM SCT210 BKN250 M04/M14 A3008 RMK AO2 SLP184 T10391139
KJFK 150051Z 31012KT 10SM BKN220 M03/M13 A3005 RMK AO2 SLP176 T10331133
KJFK 142351Z 31015KT 10SM BKN250 M03/M13 A3002 RMK AO2 SLP166 T10281128 10000 21028 51046
KJFK 142251Z 31014G24KT 10SM FEW048 SCT250 M02/M13 A2998 RMK AO2 SLP151 T10221128
KJFK 142151Z 31016KT 10SM FEW048 FEW250 M02/M12 A2994 RMK AO2 SLP138 T10221117
KJFK 142051Z 32016KT 10SM FEW048 M02/M11 A2989 RMK AO2 PK WND 28027/2023 SLP120 T10171106 51037
KJFK 141951Z 28016G24KT 10SM SCT048 00/M09 A2986 RMK AO2 SLP111 T00001094
KJFK 141851Z 30014KT 10SM SCT036 M01/M09 A2981 RMK AO2 SLP094 T10061089
KJFK 141751Z 32015KT 10SM SCT033 M01/M07 A2978 RMK AO2 SLP083 931003 4/001 60002 T10111072 11011 21033 51027
KJFK 141651Z 35012KT 10SM SCT025 M02/M07 A2976 RMK AO2 SLP075 T10171072
KJFK 141551Z 34009KT 10SM SCT020 M02/M06 A2973 RMK AO2 SLP066 SCT V BKN T10221056
KJFK 141451Z 36012KT 10SM SCT010 BKN018 BKN050 M03/M04 A2970 RMK AO2 SNE04 SLP056 SCT V BKN P0000 60002 T10281044 53041
KJFK 141413Z 01010KT 7SM SCT009 BKN026 OVC050 M02/M04 A2966 RMK AO2 SNE04 CIG 019 W P0000 T10221039
KJFK 141351Z 36010KT 3SM -SN BR FEW009 BKN036 OVC050 M02/M04 A2964 RMK AO2 SLP037 P0001 T10221039
KJFK 141251Z 01006KT 1 1/4SM R04R/6000VP6000FT -SN BR BKN015 BKN037 OVC044 M03/M04 A2960 RMK AO2 SLP022 P0001 T10281039
KJFK 141205Z 04006KT 2SM -SN BR BKN023 OVC039 M03/M04 A2958 RMK AO2 P0001 T10331044
KJFK 141151Z 03005KT 1/2SM R04R/P6000FT -SN BR OVC022 M03/M04 A2958 RMK AO2 SFC VIS 1 1/2 SLP015 931010 4/001 P0001 60004 70004 T10331044 11033 21044 53004
KJFK 141120Z 03006KT 1/2SM R04R/P6000FT -SN BR BKN026 OVC060 M03/M05 A2957 RMK AO2 SFC VIS 2 P0001 T10331050
KJFK 141119Z 02005KT 2 1/2SM -SN BR BKN027 OVC060 M03/M05 A2957 RMK AO2 VIS 1 1/2V4 P0000 T10331050
KJFK 141051Z 03006KT 10SM -SN FEW015 OVC065 M04/M05 A2956 RMK AO2 SNB50 SLP009 P0000 T10391050
KJFK 140958Z COR 05009KT 9SM SCT017 OVC065 M04/M05 A2955 RMK AO2 T10441050
KJFK 140951Z 04008KT 10SM BKN017 OVC070 M04/M05 A2954 RMK AO2 SNE10 SLP002 P0000 T10441050
KJFK 140851Z 03006KT 10SM -SN FEW007 OVC018 M04/M05 A2957 RMK AO2 SLP011 P0000 60003 T10441050 58035
KJFK 140751Z 05004KT 3SM -SN BR FEW007 OVC025 M04/M05 A2961 RMK AO2 SLP027 SNINCR 1/1 P0002 T10441050
KJFK 140748Z 05004KT 3SM -SN BR FEW007 OVC028 M04/M05 A2961 RMK AO2 P0002
KJFK 140651Z 06003KT 2SM -SN BR OVC018 M04/M06 A2964 RMK AO2 SLP036 P0001 T10441056
KJFK 140551Z 27006KT 2SM -SN BR OVC028 M04/M06 A2967 RMK AO2 SFC VIS 2 1/2 SLP046 931001 P0000 60000 T10441061 11017 21044 58008
KJFK 140515Z 26016KT 2SM -SN OVC029 M04/M07 A2971 RMK AO2 SFC VIS 3 P0000 T10391072
KJFK 140451Z 27015G21KT 10SM -SN OVC055 M03/M11 A2971 RMK AO2 PK WND 25026/0433 SLP060 SNB40 P0000 T10281106 400001067
KJFK 140351Z 27013KT 10SM OVC075 M02/M14 A2969 RMK AO2 SLP054 T10221139
KJFK 140251Z 27011KT 10SM BKN100 BKN170 OVC210 M02/M13 A2969 RMK AO2 SLP054 T10221133 57000
KJFK 140151Z 26016G25KT 10SM BKN120 BKN220 M02/M13 A2969 RMK AO2 SLP053 T10221133
KJFK 140051Z 26020KT 10SM FEW120 FEW210 BKN250 M02/M13 A2970 RMK AO2 PK WND 26029/0035 SLP056 T10221133
KJFK 132351Z 26019G27KT 10SM FEW060 BKN250 M02/M13 A2969 RMK AO2 PK WND 26029/2334 SLP055 T10171128 10000 21022 51027
KJFK 132251Z 27020G28KT 10SM FEW060 FEW250 M02/M13 A2967 RMK AO2 PK WND 27032/2240 SLP047 T10171133
KJFK 132151Z 27024G29KT 10SM FEW060 FEW250 M02/M13 A2964 RMK AO2 PK WND 27029/2135 SLP036 T10171128
KJFK 132051Z 27023G28KT 10SM FEW060 FEW250 M01/M14 A2961 RMK AO2 PK WND 27033/2023 SLP028 T10061144 53021
KJFK 131951Z 29018G27KT 10SM FEW060 FEW250 00/M16 A2959 RMK AO2 PK WND 27035/1923 SLP020 T00001156
KJFK 131851Z 29025G31KT 10SM FEW060 FEW250 00/M17 A2957 RMK AO2 PK WND 29038/1818 SLP013 T00001167